Airfield :
LOGIN :

Register | Disclaimer

   EN    FR    IT 

 










Legend :    VFR   Marginal VFR   IFR   Intensive IFR   Very Intensive IFR
Visi :
Ceiling :
>= 8 km
>= 3000ft
5 to 8 km
1000 to 3000 ft
1500m to 5 km
500 to 1000 ft
800 to 1500m
200 to 500 ft
< 800m
< 200 ft
Symbols :   Thunderstorms  Fog  Heavy snow  Heavy precipitations  Wind > 20 kt
SIGMETs :     Misc.  Thunderstorms  Icing  Turbulence  Mountain Waves  Volcanic Ashes







- Airport Elevation : 741 ft
- IATA code : PED


LKPD - Pardubice AB

CURRENT METAR :
  • 190800Z 00000KT 3000 BR NSC 00/M02 Q1018 NOSIG RMK YLO YLO

EXPIRED METARs :
  • 190724Z 00000KT 2500 BR NSC M01/M03 Q1018 RMK YLO
  • 190700Z 00000KT 1500 BR NSC M03/M05 Q1018 NOSIG RMK AMB AMB
  • 190639Z 00000KT 1500 BR NSC M04/M05 Q1018 RMK BLACK
  • 190608Z 00000KT 0800 FZFG NSC M03/M05 Q1018 RMK BLACK
  • 190600Z 11002KT 2500 BR NSC M04/M05 Q1018 NOSIG RMK BLACK

TAF AMD TAF LKPD
Valid from the 19 at 07:00 until the 20 at 06:00 UTC


190500Z 1907/2006 VRB02KT 2500 BR NSC
TEMPO 1907/1908 1000 BR
BECMG 1908/1910 CAVOK
BECMG 1910/1912 27010KT
BECMG 1914/1916 BKN030
PROB30
TEMPO 1918/1922 RA
No reported NOTAMs for that airfield.



MET'MAP, your aeronautical weather chart ! - Copyright ORBIFLY December 2007 - Disclaimer

ORBIFLY MET'MAP TEAM :

Programming & Development : Alexandra Zaïnal
Concept & Development : Baudouin d'Aumeries
Co-Development & Prog : Marc-Olivier Méhu
Technical & hardware support : Manuel Goepfert

Contact : metmap@orbifly.com




SOURCES & CREDITS :

   NOAA